sensor_id;sensor_type;location;lat;lon;timestamp;pressure;altitude;pressure_sealevel;temperature;humidity
43814;BME280;29669;55.706;37.656;2022-07-17T00:02:57;99857.19;;;18.20;50.81
43814;BME280;29669;55.706;37.656;2022-07-17T00:06:18;99857.41;;;18.18;50.97
43814;BME280;29669;55.706;37.656;2022-07-17T00:09:43;99854.97;;;18.17;50.96
43814;BME280;29669;55.706;37.656;2022-07-17T00:13:05;99857.41;;;18.18;50.95
43814;BME280;29669;55.706;37.656;2022-07-17T00:16:26;99857.78;;;18.15;50.97
43814;BME280;29669;55.706;37.656;2022-07-17T00:19:48;99855.97;;;18.16;51.04
43814;BME280;29669;55.706;37.656;2022-07-17T00:23:09;99859.41;;;18.16;51.07
43814;BME280;29669;55.706;37.656;2022-07-17T00:26:31;99855.97;;;18.16;51.22
43814;BME280;29669;55.706;37.656;2022-07-17T00:29:52;99851.94;;;18.13;51.43
43814;BME280;29669;55.706;37.656;2022-07-17T00:33:13;99848.16;;;18.09;51.19
43814;BME280;29669;55.706;37.656;2022-07-17T00:36:34;99848.53;;;18.06;51.14
43814;BME280;29669;55.706;37.656;2022-07-17T00:39:56;99848.97;;;18.03;51.25
43814;BME280;29669;55.706;37.656;2022-07-17T00:43:17;99850.41;;;17.99;51.41
43814;BME280;29669;55.706;37.656;2022-07-17T00:46:39;99855.88;;;17.98;51.46
43814;BME280;29669;55.706;37.656;2022-07-17T00:50:00;99854.47;;;17.95;51.46
43814;BME280;29669;55.706;37.656;2022-07-17T00:53:21;99853.44;;;17.96;51.66
43814;BME280;29669;55.706;37.656;2022-07-17T00:56:45;99852.03;;;17.94;51.68
43814;BME280;29669;55.706;37.656;2022-07-17T01:00:08;99853.84;;;17.93;51.82
43814;BME280;29669;55.706;37.656;2022-07-17T01:03:29;99851.22;;;17.93;51.82
43814;BME280;29669;55.706;37.656;2022-07-17T01:06:43;99849.63;;;17.92;51.84
43814;BME280;29669;55.706;37.656;2022-07-17T01:10:04;99851.22;;;17.93;51.83
43814;BME280;29669;55.706;37.656;2022-07-17T01:13:26;99845.97;;;17.93;51.94
43814;BME280;29669;55.706;37.656;2022-07-17T01:16:47;99853.84;;;17.93;51.92
43814;BME280;29669;55.706;37.656;2022-07-17T01:20:11;99858.09;;;17.94;51.78
43814;BME280;29669;55.706;37.656;2022-07-17T01:23:32;99853.03;;;17.93;51.86
43814;BME280;29669;55.706;37.656;2022-07-17T01:26:53;99861.72;;;17.93;51.97
43814;BME280;29669;55.706;37.656;2022-07-17T01:30:14;99863.53;;;17.99;51.89
43814;BME280;29669;55.706;37.656;2022-07-17T01:33:35;99867.75;;;18.07;51.95
43814;BME280;29669;55.706;37.656;2022-07-17T01:36:56;99868.91;;;18.17;51.92
43814;BME280;29669;55.706;37.656;2022-07-17T01:40:19;99874.31;;;18.29;51.78
43814;BME280;29669;55.706;37.656;2022-07-17T01:43:40;99868.44;;;18.33;51.58
43814;BME280;29669;55.706;37.656;2022-07-17T01:47:08;99865.75;;;18.40;51.56
43814;BME280;29669;55.706;37.656;2022-07-17T01:50:29;99869.41;;;18.45;51.66
43814;BME280;29669;55.706;37.656;2022-07-17T01:53:50;99866.53;;;18.53;51.60
43814;BME280;29669;55.706;37.656;2022-07-17T01:57:12;99872.13;;;18.63;51.69
43814;BME280;29669;55.706;37.656;2022-07-17T02:00:35;99871.06;;;18.71;51.70
43814;BME280;29669;55.706;37.656;2022-07-17T02:03:56;99868.97;;;18.79;51.42
43814;BME280;29669;55.706;37.656;2022-07-17T02:07:17;99864.06;;;18.90;51.40
43814;BME280;29669;55.706;37.656;2022-07-17T02:10:38;99870.06;;;18.97;51.24
43814;BME280;29669;55.706;37.656;2022-07-17T02:13:59;99865.56;;;19.04;50.90
43814;BME280;29669;55.706;37.656;2022-07-17T02:17:20;99867.53;;;19.08;50.93
43814;BME280;29669;55.706;37.656;2022-07-17T02:20:42;99868.13;;;19.10;51.16
43814;BME280;29669;55.706;37.656;2022-07-17T02:24:03;99870.19;;;19.08;51.44
43814;BME280;29669;55.706;37.656;2022-07-17T02:27:24;99864.09;;;19.08;51.69
43814;BME280;29669;55.706;37.656;2022-07-17T02:30:45;99863.09;;;19.09;51.97
43814;BME280;29669;55.706;37.656;2022-07-17T02:34:06;99870.34;;;19.13;51.89
43814;BME280;29669;55.706;37.656;2022-07-17T02:37:28;99870.28;;;19.20;52.02
43814;BME280;29669;55.706;37.656;2022-07-17T02:40:49;99869.44;;;19.26;52.12
43814;BME280;29669;55.706;37.656;2022-07-17T02:44:10;99866.94;;;19.31;52.29
43814;BME280;29669;55.706;37.656;2022-07-17T02:47:33;99861.47;;;19.32;52.52
43814;BME280;29669;55.706;37.656;2022-07-17T02:50:55;99868.59;;;19.32;52.68
43814;BME280;29669;55.706;37.656;2022-07-17T02:54:16;99862.28;;;19.33;52.75
43814;BME280;29669;55.706;37.656;2022-07-17T02:57:38;99871.38;;;19.37;52.60
43814;BME280;29669;55.706;37.656;2022-07-17T03:01:02;99858.81;;;19.39;52.68
43814;BME280;29669;55.706;37.656;2022-07-17T03:04:23;99867.06;;;19.42;52.71
43814;BME280;29669;55.706;37.656;2022-07-17T03:07:45;99868.47;;;19.45;52.72
43814;BME280;29669;55.706;37.656;2022-07-17T03:11:06;99874.91;;;19.49;52.80
43814;BME280;29669;55.706;37.656;2022-07-17T03:14:20;99871.56;;;19.60;52.90
43814;BME280;29669;55.706;37.656;2022-07-17T03:17:34;99867.38;;;19.70;52.58
43814;BME280;29669;55.706;37.656;2022-07-17T03:20:55;99871.28;;;19.86;52.34
43814;BME280;29669;55.706;37.656;2022-07-17T03:24:16;99867.66;;;19.99;52.22
43814;BME280;29669;55.706;37.656;2022-07-17T03:27:37;99862.47;;;20.10;51.81
43814;BME280;29669;55.706;37.656;2022-07-17T03:30:58;99862.13;;;20.25;51.48
43814;BME280;29669;55.706;37.656;2022-07-17T03:34:19;99866.13;;;20.27;51.03
43814;BME280;29669;55.706;37.656;2022-07-17T03:37:40;99868.84;;;20.21;51.30
43814;BME280;29669;55.706;37.656;2022-07-17T03:41:01;99868.84;;;20.21;51.28
43814;BME280;29669;55.706;37.656;2022-07-17T03:44:22;99865.78;;;20.24;51.20
43814;BME280;29669;55.706;37.656;2022-07-17T03:47:43;99866.28;;;20.32;50.94
43814;BME280;29669;55.706;37.656;2022-07-17T03:51:04;99863.81;;;20.49;50.51
43814;BME280;29669;55.706;37.656;2022-07-17T03:54:25;99870.94;;;20.60;50.45
43814;BME280;29669;55.706;37.656;2022-07-17T03:57:46;99880.72;;;20.71;50.12
43814;BME280;29669;55.706;37.656;2022-07-17T04:01:07;99877.78;;;20.79;50.10
43814;BME280;29669;55.706;37.656;2022-07-17T04:04:28;99879.38;;;20.80;50.20
43814;BME280;29669;55.706;37.656;2022-07-17T04:07:49;99880.41;;;20.79;49.97
43814;BME280;29669;55.706;37.656;2022-07-17T04:11:10;99884.06;;;20.67;50.05
43814;BME280;29669;55.706;37.656;2022-07-17T04:14:34;99879.88;;;20.47;50.56
43814;BME280;29669;55.706;37.656;2022-07-17T04:17:56;99883.63;;;20.40;50.75
43814;BME280;29669;55.706;37.656;2022-07-17T04:21:18;99878.13;;;20.41;50.91
43814;BME280;29669;55.706;37.656;2022-07-17T04:24:39;99884.56;;;20.45;50.66
43814;BME280;29669;55.706;37.656;2022-07-17T04:28:03;99874.66;;;20.41;50.70
43814;BME280;29669;55.706;37.656;2022-07-17T04:31:24;99873.78;;;20.47;50.82
43814;BME280;29669;55.706;37.656;2022-07-17T04:34:55;99868.22;;;20.67;50.68
43814;BME280;29669;55.706;37.656;2022-07-17T04:38:16;99876.16;;;20.78;50.10
43814;BME280;29669;55.706;37.656;2022-07-17T04:41:40;99869.75;;;20.86;50.24
43814;BME280;29669;55.706;37.656;2022-07-17T04:45:04;99875.41;;;20.89;49.75
43814;BME280;29669;55.706;37.656;2022-07-17T04:48:33;99869.41;;;20.94;49.59
43814;BME280;29669;55.706;37.656;2022-07-17T04:51:54;99868.22;;;21.08;48.95
43814;BME280;29669;55.706;37.656;2022-07-17T04:55:10;99879.13;;;21.23;48.23
43814;BME280;29669;55.706;37.656;2022-07-17T04:58:27;99871.91;;;21.30;47.98
43814;BME280;29669;55.706;37.656;2022-07-17T05:01:48;99860.19;;;21.37;47.47
43814;BME280;29669;55.706;37.656;2022-07-17T05:05:09;99865.47;;;21.37;47.62
43814;BME280;29669;55.706;37.656;2022-07-17T05:08:30;99877.94;;;21.65;47.42
43814;BME280;29669;55.706;37.656;2022-07-17T05:11:51;99864.06;;;21.81;46.94
43814;BME280;29669;55.706;37.656;2022-07-17T05:15:13;99871.94;;;22.04;46.27
43814;BME280;29669;55.706;37.656;2022-07-17T05:18:34;99880.28;;;22.24;45.95
43814;BME280;29669;55.706;37.656;2022-07-17T05:21:55;99872.06;;;22.37;45.34
43814;BME280;29669;55.706;37.656;2022-07-17T05:25:20;99867.00;;;22.64;44.70
43814;BME280;29669;55.706;37.656;2022-07-17T05:28:41;99871.94;;;23.05;44.19
43814;BME280;29669;55.706;37.656;2022-07-17T05:32:04;99870.88;;;23.23;43.49
43814;BME280;29669;55.706;37.656;2022-07-17T05:35:25;99867.53;;;23.44;42.88
43814;BME280;29669;55.706;37.656;2022-07-17T05:38:46;99870.78;;;23.51;42.63
43814;BME280;29669;55.706;37.656;2022-07-17T05:42:07;99861.03;;;23.35;42.34
43814;BME280;29669;55.706;37.656;2022-07-17T05:45:28;99863.19;;;23.05;42.68
43814;BME280;29669;55.706;37.656;2022-07-17T05:48:49;99874.06;;;22.75;42.93
43814;BME280;29669;55.706;37.656;2022-07-17T05:52:10;99870.53;;;22.41;43.27
43814;BME280;29669;55.706;37.656;2022-07-17T05:55:31;99868.13;;;22.12;43.82
43814;BME280;29669;55.706;37.656;2022-07-17T05:58:52;99860.50;;;21.76;43.83
43814;BME280;29669;55.706;37.656;2022-07-17T06:02:14;99860.88;;;21.44;44.09
43814;BME280;29669;55.706;37.656;2022-07-17T06:05:35;99864.44;;;21.27;44.29
43814;BME280;29669;55.706;37.656;2022-07-17T06:09:00;99858.13;;;21.28;44.07
43814;BME280;29669;55.706;37.656;2022-07-17T06:12:24;99855.59;;;21.21;44.09
43814;BME280;29669;55.706;37.656;2022-07-17T06:16:32;99857.31;;;21.16;43.89
43814;BME280;29669;55.706;37.656;2022-07-17T06:20:24;99851.09;;;21.22;43.73
43814;BME280;29669;55.706;37.656;2022-07-17T06:23:58;99857.53;;;21.26;43.51
43814;BME280;29669;55.706;37.656;2022-07-17T06:27:20;99864.31;;;21.33;43.43
43814;BME280;29669;55.706;37.656;2022-07-17T06:30:42;99856.72;;;21.37;43.34
43814;BME280;29669;55.706;37.656;2022-07-17T06:34:04;99857.66;;;21.42;42.94
43814;BME280;29669;55.706;37.656;2022-07-17T06:37:25;99862.56;;;21.62;42.80
43814;BME280;29669;55.706;37.656;2022-07-17T06:40:47;99847.03;;;22.00;42.22
43814;BME280;29669;55.706;37.656;2022-07-17T06:44:08;99842.72;;;22.39;41.86
43814;BME280;29669;55.706;37.656;2022-07-17T06:47:29;99842.16;;;22.65;41.50
43814;BME280;29669;55.706;37.656;2022-07-17T06:50:51;99844.97;;;22.47;41.41
43814;BME280;29669;55.706;37.656;2022-07-17T06:54:12;99827.47;;;22.29;41.78
43814;BME280;29669;55.706;37.656;2022-07-17T06:57:33;99824.16;;;22.22;41.83
43814;BME280;29669;55.706;37.656;2022-07-17T07:00:55;99828.44;;;22.23;41.74
43814;BME280;29669;55.706;37.656;2022-07-17T07:04:17;99838.53;;;22.26;41.69
43814;BME280;29669;55.706;37.656;2022-07-17T07:07:38;99837.59;;;22.32;41.44
43814;BME280;29669;55.706;37.656;2022-07-17T07:11:01;99831.38;;;22.55;41.41
43814;BME280;29669;55.706;37.656;2022-07-17T07:14:21;99830.47;;;22.78;40.84
43814;BME280;29669;55.706;37.656;2022-07-17T07:17:42;99838.22;;;22.68;41.01
43814;BME280;29669;55.706;37.656;2022-07-17T07:20:56;99839.44;;;22.48;41.16
43814;BME280;29669;55.706;37.656;2022-07-17T07:24:17;99838.00;;;22.41;41.37
43814;BME280;29669;55.706;37.656;2022-07-17T07:27:38;99843.69;;;22.33;41.53
43814;BME280;29669;55.706;37.656;2022-07-17T07:30:59;99854.59;;;22.36;41.12
43814;BME280;29669;55.706;37.656;2022-07-17T07:34:20;99840.56;;;22.53;40.94
43814;BME280;29669;55.706;37.656;2022-07-17T07:37:43;99836.38;;;22.85;40.29
43814;BME280;29669;55.706;37.656;2022-07-17T07:41:04;99820.94;;;22.93;40.03
43814;BME280;29669;55.706;37.656;2022-07-17T07:44:27;99833.19;;;22.83;40.00
43814;BME280;29669;55.706;37.656;2022-07-17T07:47:50;99831.16;;;22.73;40.29
43814;BME280;29669;55.706;37.656;2022-07-17T07:51:11;99823.88;;;22.97;39.80
43814;BME280;29669;55.706;37.656;2022-07-17T07:54:52;99834.63;;;22.90;39.17
43814;BME280;29669;55.706;37.656;2022-07-17T07:58:13;99847.47;;;22.82;39.27
43814;BME280;29669;55.706;37.656;2022-07-17T08:01:34;99836.84;;;23.15;38.61
43814;BME280;29669;55.706;37.656;2022-07-17T08:04:48;99838.56;;;23.59;37.87
43814;BME280;29669;55.706;37.656;2022-07-17T08:08:09;99842.97;;;23.70;37.63
43814;BME280;29669;55.706;37.656;2022-07-17T08:11:30;99840.50;;;23.64;37.39
43814;BME280;29669;55.706;37.656;2022-07-17T08:14:51;99847.22;;;23.71;37.73
43814;BME280;29669;55.706;37.656;2022-07-17T08:18:12;99843.94;;;23.64;37.60
43814;BME280;29669;55.706;37.656;2022-07-17T08:21:36;99843.56;;;23.77;37.19
43814;BME280;29669;55.706;37.656;2022-07-17T08:24:57;99839.50;;;23.91;37.27
43814;BME280;29669;55.706;37.656;2022-07-17T08:28:20;99835.41;;;24.27;36.67
43814;BME280;29669;55.706;37.656;2022-07-17T08:31:43;99836.63;;;24.68;36.29
43814;BME280;29669;55.706;37.656;2022-07-17T08:35:01;99837.22;;;25.11;35.50
43814;BME280;29669;55.706;37.656;2022-07-17T08:38:22;99838.84;;;25.49;34.95
43814;BME280;29669;55.706;37.656;2022-07-17T08:41:43;99850.16;;;25.86;34.86
43814;BME280;29669;55.706;37.656;2022-07-17T08:45:04;99845.56;;;26.34;34.25
43814;BME280;29669;55.706;37.656;2022-07-17T08:48:31;99840.00;;;26.65;34.14
43814;BME280;29669;55.706;37.656;2022-07-17T08:51:52;99841.88;;;26.55;33.57
43814;BME280;29669;55.706;37.656;2022-07-17T08:55:14;99846.34;;;26.39;33.48
43814;BME280;29669;55.706;37.656;2022-07-17T08:58:34;99846.31;;;26.24;33.84
43814;BME280;29669;55.706;37.656;2022-07-17T09:01:55;99856.72;;;26.31;34.07
43814;BME280;29669;55.706;37.656;2022-07-17T09:05:20;99856.09;;;26.03;34.38
43814;BME280;29669;55.706;37.656;2022-07-17T09:08:44;99861.31;;;25.83;34.46
43814;BME280;29669;55.706;37.656;2022-07-17T09:12:07;99861.25;;;25.68;35.02
43814;BME280;29669;55.706;37.656;2022-07-17T09:15:28;99865.59;;;25.38;35.00
43814;BME280;29669;55.706;37.656;2022-07-17T09:18:53;99867.16;;;25.02;34.82
43814;BME280;29669;55.706;37.656;2022-07-17T09:22:17;99857.59;;;24.69;34.80
43814;BME280;29669;55.706;37.656;2022-07-17T09:25:44;99857.53;;;24.64;34.68
43814;BME280;29669;55.706;37.656;2022-07-17T09:29:05;99862.78;;;24.81;34.64
43814;BME280;29669;55.706;37.656;2022-07-17T09:32:36;99859.34;;;25.17;34.47
43814;BME280;29669;55.706;37.656;2022-07-17T09:36:06;99871.34;;;25.66;34.65
43814;BME280;29669;55.706;37.656;2022-07-17T09:39:37;99866.13;;;25.86;35.54
43814;BME280;29669;55.706;37.656;2022-07-17T09:42:59;99860.91;;;26.06;35.08
43814;BME280;29669;55.706;37.656;2022-07-17T09:49:45;99847.44;;;26.48;35.12
43814;BME280;29669;55.706;37.656;2022-07-17T09:53:07;99837.09;;;27.02;35.14
43814;BME280;29669;55.706;37.656;2022-07-17T09:56:30;99848.19;;;27.59;33.71
43814;BME280;29669;55.706;37.656;2022-07-17T09:59:56;99846.75;;;27.87;32.84
43814;BME280;29669;55.706;37.656;2022-07-17T10:03:27;99865.59;;;27.17;32.60
43814;BME280;29669;55.706;37.656;2022-07-17T10:06:50;99853.81;;;26.52;33.30
43814;BME280;29669;55.706;37.656;2022-07-17T10:10:14;99847.44;;;26.48;33.42
43814;BME280;29669;55.706;37.656;2022-07-17T10:13:39;99869.50;;;26.39;32.98
43814;BME280;29669;55.706;37.656;2022-07-17T10:17:11;99863.59;;;26.22;33.27
43814;BME280;29669;55.706;37.656;2022-07-17T10:20:34;99877.22;;;26.30;32.61
43814;BME280;29669;55.706;37.656;2022-07-17T10:27:28;99861.34;;;26.70;32.10
43814;BME280;29669;55.706;37.656;2022-07-17T10:30:49;99863.44;;;26.68;31.87
43814;BME280;29669;55.706;37.656;2022-07-17T10:34:10;99858.38;;;26.62;31.82
43814;BME280;29669;55.706;37.656;2022-07-17T10:37:38;99854.69;;;26.88;31.65
43814;BME280;29669;55.706;37.656;2022-07-17T10:41:05;99849.59;;;26.91;31.66
43814;BME280;29669;55.706;37.656;2022-07-17T10:44:31;99863.19;;;26.80;31.70
43814;BME280;29669;55.706;37.656;2022-07-17T10:51:13;99851.88;;;26.18;32.21
43814;BME280;29669;55.706;37.656;2022-07-17T10:54:34;99854.94;;;25.84;32.41
43814;BME280;29669;55.706;37.656;2022-07-17T10:57:56;99851.75;;;25.82;32.35
43814;BME280;29669;55.706;37.656;2022-07-17T11:01:19;99841.16;;;25.97;32.26
43814;BME280;29669;55.706;37.656;2022-07-17T11:04:40;99842.25;;;26.01;32.12
43814;BME280;29669;55.706;37.656;2022-07-17T11:08:02;99830.53;;;26.02;31.95
43814;BME280;29669;55.706;37.656;2022-07-17T11:15:01;99817.38;;;26.53;31.39
43814;BME280;29669;55.706;37.656;2022-07-17T11:18:21;99834.97;;;26.74;31.08
43814;BME280;29669;55.706;37.656;2022-07-17T11:21:47;99840.28;;;26.84;31.02
43814;BME280;29669;55.706;37.656;2022-07-17T11:25:09;99850.97;;;26.89;31.16
43814;BME280;29669;55.706;37.656;2022-07-17T11:28:37;99839.22;;;26.90;31.02
43814;BME280;29669;55.706;37.656;2022-07-17T11:32:07;99840.28;;;27.04;30.83
43814;BME280;29669;55.706;37.656;2022-07-17T11:35:30;99834.41;;;26.97;30.71
43814;BME280;29669;55.706;37.656;2022-07-17T11:38:51;99827.00;;;26.74;30.87
43814;BME280;29669;55.706;37.656;2022-07-17T11:42:17;99827.72;;;26.59;30.98
43814;BME280;29669;55.706;37.656;2022-07-17T11:45:38;99822.44;;;26.69;30.36
43814;BME280;29669;55.706;37.656;2022-07-17T11:48:59;99822.69;;;26.58;29.92
43814;BME280;29669;55.706;37.656;2022-07-17T11:52:20;99819.53;;;26.71;29.71
43814;BME280;29669;55.706;37.656;2022-07-17T11:55:43;99820.03;;;26.98;29.07
43814;BME280;29669;55.706;37.656;2022-07-17T11:59:05;99813.59;;;27.14;28.76
43814;BME280;29669;55.706;37.656;2022-07-17T12:02:29;99820.56;;;27.10;28.54
43814;BME280;29669;55.706;37.656;2022-07-17T12:05:50;99817.38;;;26.88;29.13
43814;BME280;29669;55.706;37.656;2022-07-17T12:09:12;99814.19;;;26.61;29.54
43814;BME280;29669;55.706;37.656;2022-07-17T12:12:32;99807.25;;;26.60;29.81
43814;BME280;29669;55.706;37.656;2022-07-17T12:15:54;99816.03;;;26.65;29.59
43814;BME280;29669;55.706;37.656;2022-07-17T12:19:17;99813.38;;;26.65;29.67
43814;BME280;29669;55.706;37.656;2022-07-17T12:22:51;99805.63;;;26.99;29.57
43814;BME280;29669;55.706;37.656;2022-07-17T12:26:14;99805.81;;;27.53;28.87
43814;BME280;29669;55.706;37.656;2022-07-17T12:29:35;99804.66;;;27.74;28.36
43814;BME280;29669;55.706;37.656;2022-07-17T12:32:57;99809.78;;;27.60;28.14
43814;BME280;29669;55.706;37.656;2022-07-17T12:36:19;99800.78;;;27.41;28.09
43814;BME280;29669;55.706;37.656;2022-07-17T12:39:40;99797.44;;;27.79;27.78
43814;BME280;29669;55.706;37.656;2022-07-17T12:43:03;99791.81;;;28.30;27.17
43814;BME280;29669;55.706;37.656;2022-07-17T12:46:24;99795.63;;;29.20;25.74
43814;BME280;29669;55.706;37.656;2022-07-17T12:49:45;99796.56;;;30.69;24.16
43814;BME280;29669;55.706;37.656;2022-07-17T12:53:06;99791.00;;;31.93;22.33
43814;BME280;29669;55.706;37.656;2022-07-17T12:56:27;99787.66;;;32.45;21.83
43814;BME280;29669;55.706;37.656;2022-07-17T12:59:48;99784.06;;;32.80;21.50
43814;BME280;29669;55.706;37.656;2022-07-17T13:03:09;99777.38;;;33.39;21.18
43814;BME280;29669;55.706;37.656;2022-07-17T13:06:30;99778.75;;;33.76;20.67
43814;BME280;29669;55.706;37.656;2022-07-17T13:09:54;99771.66;;;34.23;20.40
43814;BME280;29669;55.706;37.656;2022-07-17T13:13:17;99765.31;;;34.53;19.88
43814;BME280;29669;55.706;37.656;2022-07-17T13:16:39;99771.50;;;34.53;19.99
43814;BME280;29669;55.706;37.656;2022-07-17T13:20:00;99767.06;;;34.49;19.88
43814;BME280;29669;55.706;37.656;2022-07-17T13:23:22;99770.56;;;34.49;19.86
43814;BME280;29669;55.706;37.656;2022-07-17T13:26:42;99770.31;;;34.80;19.58
43814;BME280;29669;55.706;37.656;2022-07-17T13:30:03;99765.88;;;34.84;19.17
43814;BME280;29669;55.706;37.656;2022-07-17T13:33:25;99777.19;;;34.26;19.23
43814;BME280;29669;55.706;37.656;2022-07-17T13:36:46;99773.22;;;33.81;19.70
43814;BME280;29669;55.706;37.656;2022-07-17T13:40:11;99766.78;;;33.99;19.28
43814;BME280;29669;55.706;37.656;2022-07-17T13:43:38;99775.84;;;33.47;19.71
43814;BME280;29669;55.706;37.656;2022-07-17T13:46:59;99778.97;;;32.70;19.79
43814;BME280;29669;55.706;37.656;2022-07-17T13:50:20;99777.97;;;32.00;20.46
43814;BME280;29669;55.706;37.656;2022-07-17T13:56:55;99799.31;;;32.05;nan
43814;BME280;29669;55.706;37.656;2022-07-17T14:00:11;99789.34;;;32.19;nan
43814;BME280;29669;55.706;37.656;2022-07-17T14:03:31;99782.50;;;32.35;nan
43814;BME280;29669;55.706;37.656;2022-07-17T14:06:52;99786.34;;;32.20;nan
43814;BME280;29669;55.706;37.656;2022-07-17T14:10:13;99782.50;;;31.50;nan
43814;BME280;29669;55.706;37.656;2022-07-17T14:13:34;99785.94;;;30.64;nan
43814;BME280;29669;55.706;37.656;2022-07-17T14:16:56;99783.72;;;30.34;nan
43814;BME280;29669;55.706;37.656;2022-07-17T14:20:17;99801.69;;;30.33;nan
43814;BME280;29669;55.706;37.656;2022-07-17T14:23:38;99802.47;;;30.34;nan
43814;BME280;29669;55.706;37.656;2022-07-17T14:26:59;99798.22;;;30.33;nan
43814;BME280;29669;55.706;37.656;2022-07-17T14:30:20;99785.34;;;29.98;nan
43814;BME280;29669;55.706;37.656;2022-07-17T14:33:42;99786.47;;;29.73;nan
43814;BME280;29669;55.706;37.656;2022-07-17T14:37:03;99782.56;;;29.60;nan
43814;BME280;29669;55.706;37.656;2022-07-17T14:40:24;99769.81;;;29.52;nan
43814;BME280;29669;55.706;37.656;2022-07-17T14:43:45;99774.38;;;29.05;nan
43814;BME280;29669;55.706;37.656;2022-07-17T14:47:06;99780.69;;;28.56;nan
43814;BME280;29669;55.706;37.656;2022-07-17T14:50:29;99771.84;;;28.27;nan
43814;BME280;29669;55.706;37.656;2022-07-17T14:53:50;99764.94;;;28.16;nan
43814;BME280;29669;55.706;37.656;2022-07-17T14:57:11;99781.06;;;28.01;nan
43814;BME280;29669;55.706;37.656;2022-07-17T15:00:32;99768.56;;;27.86;nan
43814;BME280;29669;55.706;37.656;2022-07-17T15:03:53;99768.75;;;27.51;nan
43814;BME280;29669;55.706;37.656;2022-07-17T15:07:14;99775.22;;;27.25;nan
43814;BME280;29669;55.706;37.656;2022-07-17T15:10:35;99780.59;;;27.05;nan
43814;BME280;29669;55.706;37.656;2022-07-17T15:13:56;99775.59;;;26.83;nan
43814;BME280;29669;55.706;37.656;2022-07-17T15:17:17;99780.09;;;26.68;nan
43814;BME280;29669;55.706;37.656;2022-07-17T15:20:38;99783.81;;;26.52;nan
43814;BME280;29669;55.706;37.656;2022-07-17T15:24:00;99774.47;;;26.09;nan
43814;BME280;29669;55.706;37.656;2022-07-17T15:27:21;99773.50;;;25.68;nan
43814;BME280;29669;55.706;37.656;2022-07-17T15:30:42;99796.72;;;25.31;nan
43814;BME280;29669;55.706;37.656;2022-07-17T15:34:03;99795.97;;;24.99;nan
43814;BME280;29669;55.706;37.656;2022-07-17T15:37:24;99804.84;;;24.78;nan
43814;BME280;29669;55.706;37.656;2022-07-17T15:40:45;99806.19;;;24.49;nan
43814;BME280;29669;55.706;37.656;2022-07-17T15:44:09;99797.41;;;24.16;nan
43814;BME280;29669;55.706;37.656;2022-07-17T15:47:23;99806.97;;;23.96;nan
43814;BME280;29669;55.706;37.656;2022-07-17T15:50:44;99800.84;;;23.74;nan
43814;BME280;29669;55.706;37.656;2022-07-17T15:54:05;99800.38;;;23.55;nan
43814;BME280;29669;55.706;37.656;2022-07-17T15:57:26;99803.88;;;23.39;nan
43814;BME280;29669;55.706;37.656;2022-07-17T16:00:47;99799.69;;;23.26;nan
43814;BME280;29669;55.706;37.656;2022-07-17T16:04:10;99794.50;;;23.15;nan
43814;BME280;29669;55.706;37.656;2022-07-17T16:07:57;99795.94;;;23.06;nan
43814;BME280;29669;55.706;37.656;2022-07-17T16:11:27;99805.00;;;23.10;nan
43814;BME280;29669;55.706;37.656;2022-07-17T16:14:58;99810.31;;;23.10;nan
43814;BME280;29669;55.706;37.656;2022-07-17T16:18:42;99802.94;;;23.12;nan
43814;BME280;29669;55.706;37.656;2022-07-17T16:22:41;99803.56;;;23.19;nan
43814;BME280;29669;55.706;37.656;2022-07-17T16:26:20;99807.88;;;23.25;nan
43814;BME280;29669;55.706;37.656;2022-07-17T16:30:19;99815.91;;;23.30;nan
43814;BME280;29669;55.706;37.656;2022-07-17T16:34:22;99817.81;;;23.73;nan
43814;BME280;29669;55.706;37.656;2022-07-17T16:38:16;99815.28;;;24.04;nan
43814;BME280;29669;55.706;37.656;2022-07-17T16:41:45;99824.41;;;23.70;nan
43814;BME280;29669;55.706;37.656;2022-07-17T16:45:26;99821.22;;;23.30;nan
43814;BME280;29669;55.706;37.656;2022-07-17T16:48:50;99823.06;;;23.13;nan
43814;BME280;29669;55.706;37.656;2022-07-17T16:52:30;99830.06;;;23.02;nan
43814;BME280;29669;55.706;37.656;2022-07-17T16:55:54;99825.66;;;22.91;nan
43814;BME280;29669;55.706;37.656;2022-07-17T16:59:38;99828.00;;;22.88;nan
43814;BME280;29669;55.706;37.656;2022-07-17T17:03:04;99831.84;;;22.80;nan
43814;BME280;29669;55.706;37.656;2022-07-17T17:06:31;99839.91;;;22.74;nan
43814;BME280;29669;55.706;37.656;2022-07-17T17:09:52;99842.94;;;22.66;nan
43814;BME280;29669;55.706;37.656;2022-07-17T17:13:15;99841.63;;;22.52;nan
43814;BME280;29669;55.706;37.656;2022-07-17T17:16:33;99840.00;;;22.34;nan
43814;BME280;29669;55.706;37.656;2022-07-17T17:20:02;99836.59;;;22.22;nan
43814;BME280;29669;55.706;37.656;2022-07-17T17:23:26;99829.06;;;22.14;nan
43814;BME280;29669;55.706;37.656;2022-07-17T17:26:52;99830.78;;;22.08;nan
43814;BME280;29669;55.706;37.656;2022-07-17T17:30:26;99834.69;;;22.06;nan
43814;BME280;29669;55.706;37.656;2022-07-17T17:34:05;99836.28;;;22.07;nan
43814;BME280;29669;55.706;37.656;2022-07-17T17:37:47;99842.53;;;22.01;nan
43814;BME280;29669;55.706;37.656;2022-07-17T17:41:18;99836.91;;;21.97;nan
43814;BME280;29669;55.706;37.656;2022-07-17T17:44:47;99836.81;;;21.92;nan
43814;BME280;29669;55.706;37.656;2022-07-17T17:48:08;99842.66;;;21.94;nan
43814;BME280;29669;55.706;37.656;2022-07-17T17:51:49;99840.59;;;21.96;nan
43814;BME280;29669;55.706;37.656;2022-07-17T17:55:24;99834.75;;;21.94;nan
43814;BME280;29669;55.706;37.656;2022-07-17T17:58:59;99843.16;;;21.91;nan
43814;BME280;29669;55.706;37.656;2022-07-17T18:02:24;99842.44;;;21.84;nan
43814;BME280;29669;55.706;37.656;2022-07-17T18:05:49;99843.81;;;21.75;nan
43814;BME280;29669;55.706;37.656;2022-07-17T18:09:58;99859.91;;;21.74;nan